Accueil
METAR-TAF:

METAR-TAF

Aéroports :

Locarno, Suisse

latitude: 46-09-55N, longitude: 8-52-40E, altitude: 198 m

Observation

Le bulletin a été fait il y a 33 minutes, à 01:20 UTC
Vent 2 kt de direction variable
Température 2°C
Humidité 93%
Pression 1012 hPa
Visibilité 10 km ou plus

METAR: LSZL 210120Z AUTO VRB02KT 9999NDV NCD 02/01 Q1012 RMK

Heure: 02:53 (01:53 UTC)

Prévision

Le bulletin a été fait il y a 8 heures et 28 minutes, à 17:25 UTC
Prévision valable du 20 à 18 UTC au 21 à 03 UTC
Vent 3 kt de direction variable
Visibilité 10 km ou plus
Nuages fragmentés à une hauteur de 6500 ft
Probabilité 40%
du 20 à 21 UTC au 21 à 03 UTC
Visibilité: 4500 m
brume

TAF: LSZL 201725Z 2018/2103 VRB03KT 9999 BKN065 PROB40 2021/2103 4500 BR

Observations et prévisions météorologiques de plus de 4000 aéroports (messages METAR et TAF).

Les stations disponibles sont représentées par des disques jaunes et rouges sur la carte.

Passer la souris dessus pour voir le nom de la station.

Cliquer dessus pour voir les observations et prévisions météorologiques.

Pour changer de carte: cliquez sur les boutons verts avec une croix noire pour zoomer, sur le bouton vert avec un tiret pour effectuer un zoom arrière, ou sur les flèches vertes pour les cartes adjacentes.


METAR-TAF: